Карточка аэропорта UMBB

Внимание!
Информация на этой странице в стадии наполнения.
Если вы не увидели какой-то информации, или заметили неточность - пожалуйста сообщите нам!
Спасибо!
Команда RU-STAFF
Название аэропортаBrest
Название аэропорта (англ.)Brest
Превышение469 ft. (143 m.)
Координаты52°6.498', 23°53.784'
Высота перехода6000 ft
Эшелон переходаFL80; QNH<977hPa - FL90
Коды ответчика0035
Зона ОрВДМинск РПИ (UMMV)
Данные METARUMBB 070500Z 18003MPS 1800 SHSNRA BR OVC002CB 00/00 Q1007 NOSIG RMK QBB070
Проноз погоды (TAF)
NOTAMshow/hide NOTAM
AWOS   TABLE

Информация о ВПП

ВПП Длина ВПП (м.) Покрытие Курс ВПП Частота ILS
112620Цементобетон107 
292620Цементобетон287110.3

Диспетчерские позиции


Сценарии

Сценарий
Нет результатов.


Спутниковое изображение